sensor_id;sensor_type;location;lat;lon;timestamp;P1;durP1;ratioP1;P2;durP2;ratioP2
44189;SDS011;29856;52.144;5.430;2022-09-09T00:00:39;1.88;;;0.75;;
44189;SDS011;29856;52.144;5.430;2022-09-09T00:03:17;2.90;;;0.80;;
44189;SDS011;29856;52.144;5.430;2022-09-09T00:06:08;1.70;;;1.00;;
44189;SDS011;29856;52.144;5.430;2022-09-09T00:11:17;0.77;;;0.73;;
44189;SDS011;29856;52.144;5.430;2022-09-09T00:13:52;1.20;;;0.73;;
44189;SDS011;29856;52.144;5.430;2022-09-09T00:16:19;1.55;;;0.77;;
44189;SDS011;29856;52.144;5.430;2022-09-09T00:18:57;1.85;;;0.88;;
44189;SDS011;29856;52.144;5.430;2022-09-09T00:21:50;1.38;;;0.80;;
44189;SDS011;29856;52.144;5.430;2022-09-09T00:27:19;5.13;;;1.27;;
44189;SDS011;29856;52.144;5.430;2022-09-09T00:30:39;2.85;;;0.80;;
44189;SDS011;29856;52.144;5.430;2022-09-09T00:33:00;2.05;;;1.20;;
44189;SDS011;29856;52.144;5.430;2022-09-09T00:35:34;2.65;;;1.02;;
44189;SDS011;29856;52.144;5.430;2022-09-09T00:38:10;2.38;;;1.00;;
44189;SDS011;29856;52.144;5.430;2022-09-09T00:40:49;2.67;;;1.27;;
44189;SDS011;29856;52.144;5.430;2022-09-09T00:43:28;2.25;;;1.10;;
44189;SDS011;29856;52.144;5.430;2022-09-09T00:46:01;2.20;;;1.38;;
44189;SDS011;29856;52.144;5.430;2022-09-09T00:51:17;3.72;;;1.48;;
44189;SDS011;29856;52.144;5.430;2022-09-09T00:56:45;2.38;;;1.77;;
44189;SDS011;29856;52.144;5.430;2022-09-09T00:59:24;6.57;;;3.63;;
44189;SDS011;29856;52.144;5.430;2022-09-09T01:01:59;3.13;;;2.10;;
44189;SDS011;29856;52.144;5.430;2022-09-09T01:04:27;1.77;;;1.60;;
44189;SDS011;29856;52.144;5.430;2022-09-09T01:07:04;3.20;;;1.63;;
44189;SDS011;29856;52.144;5.430;2022-09-09T01:09:56;3.90;;;2.10;;
44189;SDS011;29856;52.144;5.430;2022-09-09T01:12:39;2.67;;;1.90;;
44189;SDS011;29856;52.144;5.430;2022-09-09T01:18:04;2.67;;;1.80;;
44189;SDS011;29856;52.144;5.430;2022-09-09T01:20:38;2.15;;;1.90;;
44189;SDS011;29856;52.144;5.430;2022-09-09T01:23:11;5.55;;;2.10;;
44189;SDS011;29856;52.144;5.430;2022-09-09T01:28:10;3.70;;;1.98;;
44189;SDS011;29856;52.144;5.430;2022-09-09T01:30:41;3.72;;;1.95;;
44189;SDS011;29856;52.144;5.430;2022-09-09T01:33:09;3.17;;;2.10;;
44189;SDS011;29856;52.144;5.430;2022-09-09T01:38:13;6.25;;;2.42;;
44189;SDS011;29856;52.144;5.430;2022-09-09T01:40:39;4.95;;;2.03;;
44189;SDS011;29856;52.144;5.430;2022-09-09T01:43:05;4.03;;;2.00;;
44189;SDS011;29856;52.144;5.430;2022-09-09T01:45:31;4.70;;;3.08;;
44189;SDS011;29856;52.144;5.430;2022-09-09T01:47:57;5.28;;;2.40;;
44189;SDS011;29856;52.144;5.430;2022-09-09T01:50:24;4.35;;;2.60;;
44189;SDS011;29856;52.144;5.430;2022-09-09T01:52:50;5.25;;;2.13;;
44189;SDS011;29856;52.144;5.430;2022-09-09T01:55:21;3.45;;;2.72;;
44189;SDS011;29856;52.144;5.430;2022-09-09T02:00:50;4.43;;;2.67;;
44189;SDS011;29856;52.144;5.430;2022-09-09T02:03:27;6.60;;;3.17;;
44189;SDS011;29856;52.144;5.430;2022-09-09T02:08:29;3.15;;;2.63;;
44189;SDS011;29856;52.144;5.430;2022-09-09T02:11:14;4.07;;;2.70;;
44189;SDS011;29856;52.144;5.430;2022-09-09T02:13:42;2.78;;;2.35;;
44189;SDS011;29856;52.144;5.430;2022-09-09T02:18:50;7.15;;;3.42;;
44189;SDS011;29856;52.144;5.430;2022-09-09T02:21:20;4.05;;;2.83;;
44189;SDS011;29856;52.144;5.430;2022-09-09T02:23:47;5.45;;;2.95;;
44189;SDS011;29856;52.144;5.430;2022-09-09T02:26:15;5.20;;;3.10;;
44189;SDS011;29856;52.144;5.430;2022-09-09T02:28:42;7.47;;;3.08;;
44189;SDS011;29856;52.144;5.430;2022-09-09T02:31:08;3.78;;;3.20;;
44189;SDS011;29856;52.144;5.430;2022-09-09T02:33:36;5.38;;;3.15;;
44189;SDS011;29856;52.144;5.430;2022-09-09T02:36:06;4.95;;;3.35;;
44189;SDS011;29856;52.144;5.430;2022-09-09T02:38:35;4.80;;;3.50;;
44189;SDS011;29856;52.144;5.430;2022-09-09T02:41:07;4.90;;;3.30;;
44189;SDS011;29856;52.144;5.430;2022-09-09T02:43:33;5.20;;;2.80;;
44189;SDS011;29856;52.144;5.430;2022-09-09T02:48:46;4.05;;;3.13;;
44189;SDS011;29856;52.144;5.430;2022-09-09T02:56:48;4.75;;;3.38;;
44189;SDS011;29856;52.144;5.430;2022-09-09T02:59:17;5.90;;;3.20;;
44189;SDS011;29856;52.144;5.430;2022-09-09T03:01:42;5.82;;;3.45;;
44189;SDS011;29856;52.144;5.430;2022-09-09T03:04:08;5.65;;;3.53;;
44189;SDS011;29856;52.144;5.430;2022-09-09T03:06:33;3.40;;;3.10;;
44189;SDS011;29856;52.144;5.430;2022-09-09T03:08:59;5.25;;;4.22;;
44189;SDS011;29856;52.144;5.430;2022-09-09T03:11:24;4.28;;;3.42;;
44189;SDS011;29856;52.144;5.430;2022-09-09T03:13:50;7.57;;;3.30;;
44189;SDS011;29856;52.144;5.430;2022-09-09T03:16:15;4.35;;;3.30;;
44189;SDS011;29856;52.144;5.430;2022-09-09T03:18:40;5.60;;;4.03;;
44189;SDS011;29856;52.144;5.430;2022-09-09T03:21:06;8.15;;;3.25;;
44189;SDS011;29856;52.144;5.430;2022-09-09T03:23:31;7.40;;;3.80;;
44189;SDS011;29856;52.144;5.430;2022-09-09T03:25:57;4.68;;;3.78;;
44189;SDS011;29856;52.144;5.430;2022-09-09T03:28:22;5.85;;;4.20;;
44189;SDS011;29856;52.144;5.430;2022-09-09T03:30:48;5.18;;;4.32;;
44189;SDS011;29856;52.144;5.430;2022-09-09T03:33:13;6.63;;;4.05;;
44189;SDS011;29856;52.144;5.430;2022-09-09T03:35:39;7.25;;;4.20;;
44189;SDS011;29856;52.144;5.430;2022-09-09T03:38:10;6.38;;;4.22;;
44189;SDS011;29856;52.144;5.430;2022-09-09T03:40:36;7.43;;;4.60;;
44189;SDS011;29856;52.144;5.430;2022-09-09T03:43:01;5.07;;;3.72;;
44189;SDS011;29856;52.144;5.430;2022-09-09T03:45:26;5.28;;;4.38;;
44189;SDS011;29856;52.144;5.430;2022-09-09T03:47:52;5.95;;;4.65;;
44189;SDS011;29856;52.144;5.430;2022-09-09T03:50:17;5.18;;;4.47;;
44189;SDS011;29856;52.144;5.430;2022-09-09T03:52:43;5.78;;;3.90;;
44189;SDS011;29856;52.144;5.430;2022-09-09T03:55:08;5.10;;;4.38;;
44189;SDS011;29856;52.144;5.430;2022-09-09T03:57:34;10.52;;;4.38;;
44189;SDS011;29856;52.144;5.430;2022-09-09T04:00:02;4.97;;;4.35;;
44189;SDS011;29856;52.144;5.430;2022-09-09T04:02:28;6.32;;;4.00;;
44189;SDS011;29856;52.144;5.430;2022-09-09T04:04:54;5.97;;;3.95;;
44189;SDS011;29856;52.144;5.430;2022-09-09T04:07:19;6.93;;;4.30;;
44189;SDS011;29856;52.144;5.430;2022-09-09T04:09:45;5.78;;;4.35;;
44189;SDS011;29856;52.144;5.430;2022-09-09T04:12:10;7.22;;;4.47;;
44189;SDS011;29856;52.144;5.430;2022-09-09T04:14:36;5.68;;;3.85;;
44189;SDS011;29856;52.144;5.430;2022-09-09T04:17:01;8.15;;;4.00;;
44189;SDS011;29856;52.144;5.430;2022-09-09T04:19:26;5.93;;;3.88;;
44189;SDS011;29856;52.144;5.430;2022-09-09T04:21:52;7.88;;;4.30;;
44189;SDS011;29856;52.144;5.430;2022-09-09T04:24:17;7.10;;;3.55;;
44189;SDS011;29856;52.144;5.430;2022-09-09T04:26:43;10.07;;;4.28;;
44189;SDS011;29856;52.144;5.430;2022-09-09T04:29:08;7.38;;;4.35;;
44189;SDS011;29856;52.144;5.430;2022-09-09T04:31:34;12.60;;;5.18;;
44189;SDS011;29856;52.144;5.430;2022-09-09T04:33:59;9.88;;;4.50;;
44189;SDS011;29856;52.144;5.430;2022-09-09T04:36:25;6.50;;;3.03;;
44189;SDS011;29856;52.144;5.430;2022-09-09T04:38:50;6.57;;;3.40;;
44189;SDS011;29856;52.144;5.430;2022-09-09T04:41:15;7.20;;;3.47;;
44189;SDS011;29856;52.144;5.430;2022-09-09T04:43:41;7.03;;;4.45;;
44189;SDS011;29856;52.144;5.430;2022-09-09T04:46:07;6.63;;;4.00;;
44189;SDS011;29856;52.144;5.430;2022-09-09T04:48:32;7.03;;;4.63;;
44189;SDS011;29856;52.144;5.430;2022-09-09T04:50:59;8.75;;;4.35;;
44189;SDS011;29856;52.144;5.430;2022-09-09T04:53:27;5.70;;;4.35;;
44189;SDS011;29856;52.144;5.430;2022-09-09T04:56:02;6.07;;;4.10;;
44189;SDS011;29856;52.144;5.430;2022-09-09T04:58:32;8.38;;;4.38;;
44189;SDS011;29856;52.144;5.430;2022-09-09T05:01:10;5.65;;;3.25;;
44189;SDS011;29856;52.144;5.430;2022-09-09T05:03:38;13.40;;;4.15;;
44189;SDS011;29856;52.144;5.430;2022-09-09T05:06:08;6.88;;;3.90;;
44189;SDS011;29856;52.144;5.430;2022-09-09T05:08:38;7.32;;;4.10;;
44189;SDS011;29856;52.144;5.430;2022-09-09T05:13:47;11.85;;;4.03;;
44189;SDS011;29856;52.144;5.430;2022-09-09T05:16:13;8.15;;;3.28;;
44189;SDS011;29856;52.144;5.430;2022-09-09T05:18:39;7.03;;;4.28;;
44189;SDS011;29856;52.144;5.430;2022-09-09T05:21:05;10.65;;;4.13;;
44189;SDS011;29856;52.144;5.430;2022-09-09T05:23:32;5.68;;;3.63;;
44189;SDS011;29856;52.144;5.430;2022-09-09T05:25:58;7.20;;;4.03;;
44189;SDS011;29856;52.144;5.430;2022-09-09T05:28:24;8.80;;;3.58;;
44189;SDS011;29856;52.144;5.430;2022-09-09T05:31:07;4.53;;;3.00;;
44189;SDS011;29856;52.144;5.430;2022-09-09T05:33:34;6.43;;;3.63;;
44189;SDS011;29856;52.144;5.430;2022-09-09T05:36:04;7.40;;;4.03;;
44189;SDS011;29856;52.144;5.430;2022-09-09T05:38:38;8.07;;;4.28;;
44189;SDS011;29856;52.144;5.430;2022-09-09T05:41:03;7.05;;;3.22;;
44189;SDS011;29856;52.144;5.430;2022-09-09T05:43:29;8.07;;;3.90;;
44189;SDS011;29856;52.144;5.430;2022-09-09T05:46:10;9.90;;;3.92;;
44189;SDS011;29856;52.144;5.430;2022-09-09T05:48:38;11.45;;;3.85;;
44189;SDS011;29856;52.144;5.430;2022-09-09T05:51:07;10.27;;;4.20;;
44189;SDS011;29856;52.144;5.430;2022-09-09T05:53:34;11.65;;;3.97;;
44189;SDS011;29856;52.144;5.430;2022-09-09T05:56:04;8.43;;;4.25;;
44189;SDS011;29856;52.144;5.430;2022-09-09T05:58:40;9.82;;;4.00;;
44189;SDS011;29856;52.144;5.430;2022-09-09T06:01:07;10.35;;;4.07;;
44189;SDS011;29856;52.144;5.430;2022-09-09T06:03:38;9.13;;;2.95;;
44189;SDS011;29856;52.144;5.430;2022-09-09T06:06:05;14.73;;;4.45;;
44189;SDS011;29856;52.144;5.430;2022-09-09T06:08:36;8.63;;;3.33;;
44189;SDS011;29856;52.144;5.430;2022-09-09T06:11:06;12.55;;;3.90;;
44189;SDS011;29856;52.144;5.430;2022-09-09T06:13:33;10.32;;;3.58;;
44189;SDS011;29856;52.144;5.430;2022-09-09T06:16:00;15.50;;;4.32;;
44189;SDS011;29856;52.144;5.430;2022-09-09T06:18:26;15.93;;;4.25;;
44189;SDS011;29856;52.144;5.430;2022-09-09T06:20:55;10.27;;;3.78;;
44189;SDS011;29856;52.144;5.430;2022-09-09T06:23:25;9.50;;;3.50;;
44189;SDS011;29856;52.144;5.430;2022-09-09T06:25:51;12.95;;;3.47;;
44189;SDS011;29856;52.144;5.430;2022-09-09T06:28:17;9.80;;;3.50;;
44189;SDS011;29856;52.144;5.430;2022-09-09T06:30:43;7.38;;;3.83;;
44189;SDS011;29856;52.144;5.430;2022-09-09T06:33:08;13.43;;;4.13;;
44189;SDS011;29856;52.144;5.430;2022-09-09T06:35:34;10.88;;;3.42;;
44189;SDS011;29856;52.144;5.430;2022-09-09T06:37:59;13.80;;;3.97;;
44189;SDS011;29856;52.144;5.430;2022-09-09T06:40:25;14.20;;;4.07;;
44189;SDS011;29856;52.144;5.430;2022-09-09T06:42:50;13.55;;;3.28;;
44189;SDS011;29856;52.144;5.430;2022-09-09T06:45:16;10.75;;;3.40;;
44189;SDS011;29856;52.144;5.430;2022-09-09T06:47:42;11.75;;;3.40;;
44189;SDS011;29856;52.144;5.430;2022-09-09T06:50:07;9.40;;;2.80;;
44189;SDS011;29856;52.144;5.430;2022-09-09T06:52:33;6.45;;;2.83;;
44189;SDS011;29856;52.144;5.430;2022-09-09T06:54:58;10.70;;;3.17;;
44189;SDS011;29856;52.144;5.430;2022-09-09T06:57:24;8.15;;;3.22;;
44189;SDS011;29856;52.144;5.430;2022-09-09T06:59:49;10.75;;;2.47;;
44189;SDS011;29856;52.144;5.430;2022-09-09T07:02:15;15.00;;;3.47;;
44189;SDS011;29856;52.144;5.430;2022-09-09T07:04:40;9.77;;;2.67;;
44189;SDS011;29856;52.144;5.430;2022-09-09T07:07:06;10.05;;;3.13;;
44189;SDS011;29856;52.144;5.430;2022-09-09T07:09:31;12.75;;;3.13;;
44189;SDS011;29856;52.144;5.430;2022-09-09T07:11:57;10.60;;;3.20;;
44189;SDS011;29856;52.144;5.430;2022-09-09T07:14:22;13.77;;;3.03;;
44189;SDS011;29856;52.144;5.430;2022-09-09T07:16:48;12.88;;;3.47;;
44189;SDS011;29856;52.144;5.430;2022-09-09T07:19:13;8.90;;;3.15;;
44189;SDS011;29856;52.144;5.430;2022-09-09T07:21:39;9.85;;;2.72;;
44189;SDS011;29856;52.144;5.430;2022-09-09T07:24:05;14.65;;;3.85;;
44189;SDS011;29856;52.144;5.430;2022-09-09T07:26:31;13.32;;;3.88;;
44189;SDS011;29856;52.144;5.430;2022-09-09T07:28:57;14.25;;;2.78;;
44189;SDS011;29856;52.144;5.430;2022-09-09T07:31:24;12.88;;;2.60;;
44189;SDS011;29856;52.144;5.430;2022-09-09T07:33:51;11.48;;;2.70;;
44189;SDS011;29856;52.144;5.430;2022-09-09T07:36:23;6.50;;;2.38;;
44189;SDS011;29856;52.144;5.430;2022-09-09T07:38:53;8.77;;;2.55;;
44189;SDS011;29856;52.144;5.430;2022-09-09T07:41:22;14.85;;;2.63;;
44189;SDS011;29856;52.144;5.430;2022-09-09T07:43:53;10.85;;;2.78;;
44189;SDS011;29856;52.144;5.430;2022-09-09T07:46:20;14.50;;;2.78;;
44189;SDS011;29856;52.144;5.430;2022-09-09T07:48:47;11.07;;;2.83;;
44189;SDS011;29856;52.144;5.430;2022-09-09T07:51:15;10.95;;;2.40;;
44189;SDS011;29856;52.144;5.430;2022-09-09T07:53:42;12.10;;;2.92;;
44189;SDS011;29856;52.144;5.430;2022-09-09T07:56:08;11.90;;;2.78;;
44189;SDS011;29856;52.144;5.430;2022-09-09T07:58:36;11.63;;;2.70;;
44189;SDS011;29856;52.144;5.430;2022-09-09T08:01:07;11.70;;;2.47;;
44189;SDS011;29856;52.144;5.430;2022-09-09T08:03:33;11.98;;;3.40;;
44189;SDS011;29856;52.144;5.430;2022-09-09T08:06:00;9.38;;;2.45;;
44189;SDS011;29856;52.144;5.430;2022-09-09T08:08:26;8.23;;;2.17;;
44189;SDS011;29856;52.144;5.430;2022-09-09T08:10:52;13.10;;;2.53;;
44189;SDS011;29856;52.144;5.430;2022-09-09T08:13:18;10.18;;;2.55;;
44189;SDS011;29856;52.144;5.430;2022-09-09T08:15:43;10.70;;;2.25;;
44189;SDS011;29856;52.144;5.430;2022-09-09T08:18:09;12.35;;;2.50;;
44189;SDS011;29856;52.144;5.430;2022-09-09T08:20:35;7.03;;;2.28;;
44189;SDS011;29856;52.144;5.430;2022-09-09T08:23:01;8.50;;;2.35;;
44189;SDS011;29856;52.144;5.430;2022-09-09T08:25:27;10.20;;;2.80;;
44189;SDS011;29856;52.144;5.430;2022-09-09T08:27:53;11.55;;;2.95;;
44189;SDS011;29856;52.144;5.430;2022-09-09T08:30:18;14.57;;;2.38;;
44189;SDS011;29856;52.144;5.430;2022-09-09T08:32:44;14.05;;;2.95;;
44189;SDS011;29856;52.144;5.430;2022-09-09T08:35:09;13.40;;;2.33;;
44189;SDS011;29856;52.144;5.430;2022-09-09T08:37:34;14.32;;;2.92;;
44189;SDS011;29856;52.144;5.430;2022-09-09T08:40:00;14.05;;;3.05;;
44189;SDS011;29856;52.144;5.430;2022-09-09T08:55:44;6.90;;;2.13;;
44189;SDS011;29856;52.144;5.430;2022-09-09T08:58:19;10.95;;;2.83;;
44189;SDS011;29856;52.144;5.430;2022-09-09T09:00:53;10.13;;;2.50;;
44189;SDS011;29856;52.144;5.430;2022-09-09T09:06:19;11.05;;;2.00;;
44189;SDS011;29856;52.144;5.430;2022-09-09T09:11:37;12.73;;;2.60;;
44189;SDS011;29856;52.144;5.430;2022-09-09T09:14:18;13.32;;;2.30;;
44189;SDS011;29856;52.144;5.430;2022-09-09T09:16:53;8.52;;;2.33;;
44189;SDS011;29856;52.144;5.430;2022-09-09T09:19:24;17.00;;;2.50;;
44189;SDS011;29856;52.144;5.430;2022-09-09T09:30:20;11.18;;;2.42;;
44189;SDS011;29856;52.144;5.430;2022-09-09T09:33:02;13.57;;;2.42;;
44189;SDS011;29856;52.144;5.430;2022-09-09T09:35:36;26.35;;;2.70;;
44189;SDS011;29856;52.144;5.430;2022-09-09T09:38:05;16.60;;;2.97;;
44189;SDS011;29856;52.144;5.430;2022-09-09T09:40:56;10.55;;;2.15;;
44189;SDS011;29856;52.144;5.430;2022-09-09T09:43:30;10.77;;;2.13;;
44189;SDS011;29856;52.144;5.430;2022-09-09T09:45:59;16.40;;;2.55;;
44189;SDS011;29856;52.144;5.430;2022-09-09T09:48:25;6.55;;;2.10;;
44189;SDS011;29856;52.144;5.430;2022-09-09T09:51:10;11.15;;;2.17;;
44189;SDS011;29856;52.144;5.430;2022-09-09T09:53:38;14.13;;;2.80;;
44189;SDS011;29856;52.144;5.430;2022-09-09T09:56:11;8.15;;;2.15;;
44189;SDS011;29856;52.144;5.430;2022-09-09T10:01:20;8.57;;;2.17;;
44189;SDS011;29856;52.144;5.430;2022-09-09T10:03:52;8.50;;;2.33;;
44189;SDS011;29856;52.144;5.430;2022-09-09T10:06:37;9.02;;;2.20;;
44189;SDS011;29856;52.144;5.430;2022-09-09T10:09:03;7.90;;;2.20;;
44189;SDS011;29856;52.144;5.430;2022-09-09T10:26:31;9.73;;;1.98;;
44189;SDS011;29856;52.144;5.430;2022-09-09T10:29:22;11.38;;;3.05;;
44189;SDS011;29856;52.144;5.430;2022-09-09T10:37:41;14.68;;;2.22;;
44189;SDS011;29856;52.144;5.430;2022-09-09T10:42:49;11.20;;;2.45;;
44189;SDS011;29856;52.144;5.430;2022-09-09T10:45:18;15.65;;;2.97;;
44189;SDS011;29856;52.144;5.430;2022-09-09T10:48:00;8.35;;;2.20;;
44189;SDS011;29856;52.144;5.430;2022-09-09T10:50:42;9.63;;;2.20;;
44189;SDS011;29856;52.144;5.430;2022-09-09T10:53:18;11.55;;;2.95;;
44189;SDS011;29856;52.144;5.430;2022-09-09T10:55:52;10.02;;;2.28;;
44189;SDS011;29856;52.144;5.430;2022-09-09T10:58:23;9.45;;;2.33;;
44189;SDS011;29856;52.144;5.430;2022-09-09T11:00:54;7.18;;;2.33;;
44189;SDS011;29856;52.144;5.430;2022-09-09T11:03:26;8.60;;;2.22;;
44189;SDS011;29856;52.144;5.430;2022-09-09T11:05:55;10.55;;;2.40;;
44189;SDS011;29856;52.144;5.430;2022-09-09T11:13:55;8.02;;;2.30;;
44189;SDS011;29856;52.144;5.430;2022-09-09T11:16:30;7.55;;;2.63;;
44189;SDS011;29856;52.144;5.430;2022-09-09T11:19:23;10.95;;;2.75;;
44189;SDS011;29856;52.144;5.430;2022-09-09T11:21:49;7.55;;;2.42;;
44189;SDS011;29856;52.144;5.430;2022-09-09T11:29:41;8.25;;;2.30;;
44189;SDS011;29856;52.144;5.430;2022-09-09T11:35:31;5.80;;;2.15;;
44189;SDS011;29856;52.144;5.430;2022-09-09T11:38:27;7.68;;;2.10;;
44189;SDS011;29856;52.144;5.430;2022-09-09T11:41:01;5.93;;;2.10;;
44189;SDS011;29856;52.144;5.430;2022-09-09T11:45:57;8.65;;;1.98;;
44189;SDS011;29856;52.144;5.430;2022-09-09T11:48:34;9.85;;;2.30;;
44189;SDS011;29856;52.144;5.430;2022-09-09T11:51:03;7.78;;;2.30;;
44189;SDS011;29856;52.144;5.430;2022-09-09T11:53:31;8.00;;;1.95;;
44189;SDS011;29856;52.144;5.430;2022-09-09T11:58:33;12.07;;;2.10;;
44189;SDS011;29856;52.144;5.430;2022-09-09T12:01:12;8.75;;;2.60;;
44189;SDS011;29856;52.144;5.430;2022-09-09T12:03:49;6.40;;;2.40;;
44189;SDS011;29856;52.144;5.430;2022-09-09T12:08:45;6.50;;;2.33;;
44189;SDS011;29856;52.144;5.430;2022-09-09T12:11:25;6.22;;;2.00;;
44189;SDS011;29856;52.144;5.430;2022-09-09T12:13:53;9.63;;;2.35;;
44189;SDS011;29856;52.144;5.430;2022-09-09T12:16:29;8.23;;;2.10;;
44189;SDS011;29856;52.144;5.430;2022-09-09T12:19:03;6.63;;;2.20;;
44189;SDS011;29856;52.144;5.430;2022-09-09T12:24:09;8.88;;;2.33;;
44189;SDS011;29856;52.144;5.430;2022-09-09T12:29:44;4.97;;;1.65;;
44189;SDS011;29856;52.144;5.430;2022-09-09T12:32:24;6.60;;;2.17;;
44189;SDS011;29856;52.144;5.430;2022-09-09T12:37:35;9.07;;;2.67;;
44189;SDS011;29856;52.144;5.430;2022-09-09T12:40:19;8.23;;;2.20;;
44189;SDS011;29856;52.144;5.430;2022-09-09T12:42:45;8.82;;;2.63;;
44189;SDS011;29856;52.144;5.430;2022-09-09T12:45:17;7.63;;;3.10;;
44189;SDS011;29856;52.144;5.430;2022-09-09T12:47:49;5.95;;;2.60;;
44189;SDS011;29856;52.144;5.430;2022-09-09T12:50:20;9.45;;;2.72;;
44189;SDS011;29856;52.144;5.430;2022-09-09T12:52:48;8.05;;;2.80;;
44189;SDS011;29856;52.144;5.430;2022-09-09T12:55:17;12.43;;;2.58;;
44189;SDS011;29856;52.144;5.430;2022-09-09T12:57:44;7.88;;;2.40;;
44189;SDS011;29856;52.144;5.430;2022-09-09T13:00:21;7.50;;;2.50;;
44189;SDS011;29856;52.144;5.430;2022-09-09T13:02:59;6.53;;;2.53;;
44189;SDS011;29856;52.144;5.430;2022-09-09T13:05:28;7.20;;;2.40;;
44189;SDS011;29856;52.144;5.430;2022-09-09T13:08:01;7.70;;;2.42;;
44189;SDS011;29856;52.144;5.430;2022-09-09T13:10:35;7.25;;;2.33;;
44189;SDS011;29856;52.144;5.430;2022-09-09T13:13:17;10.68;;;2.45;;
44189;SDS011;29856;52.144;5.430;2022-09-09T13:15:53;10.95;;;2.42;;
44189;SDS011;29856;52.144;5.430;2022-09-09T13:18:21;9.20;;;1.95;;
44189;SDS011;29856;52.144;5.430;2022-09-09T13:20:48;7.38;;;1.98;;
44189;SDS011;29856;52.144;5.430;2022-09-09T13:23:15;6.75;;;2.00;;
44189;SDS011;29856;52.144;5.430;2022-09-09T13:25:51;5.63;;;1.95;;
44189;SDS011;29856;52.144;5.430;2022-09-09T13:28:23;7.68;;;2.28;;
44189;SDS011;29856;52.144;5.430;2022-09-09T13:31:02;5.55;;;2.53;;
44189;SDS011;29856;52.144;5.430;2022-09-09T13:33:36;6.65;;;2.10;;
44189;SDS011;29856;52.144;5.430;2022-09-09T13:38:35;5.63;;;2.03;;
44189;SDS011;29856;52.144;5.430;2022-09-09T13:41:24;6.15;;;2.33;;
44189;SDS011;29856;52.144;5.430;2022-09-09T13:43:55;7.03;;;2.33;;
44189;SDS011;29856;52.144;5.430;2022-09-09T13:51:41;7.22;;;2.13;;
44189;SDS011;29856;52.144;5.430;2022-09-09T13:54:30;4.60;;;2.05;;
44189;SDS011;29856;52.144;5.430;2022-09-09T13:56:55;6.13;;;2.35;;
44189;SDS011;29856;52.144;5.430;2022-09-09T13:59:21;8.43;;;2.83;;
44189;SDS011;29856;52.144;5.430;2022-09-09T14:01:47;8.38;;;2.88;;
44189;SDS011;29856;52.144;5.430;2022-09-09T14:04:13;7.40;;;2.42;;
44189;SDS011;29856;52.144;5.430;2022-09-09T14:06:38;8.10;;;2.35;;
44189;SDS011;29856;52.144;5.430;2022-09-09T14:09:08;4.55;;;1.95;;
44189;SDS011;29856;52.144;5.430;2022-09-09T14:11:36;6.35;;;2.42;;
44189;SDS011;29856;52.144;5.430;2022-09-09T14:14:01;7.55;;;2.38;;
44189;SDS011;29856;52.144;5.430;2022-09-09T14:16:28;8.07;;;2.42;;
44189;SDS011;29856;52.144;5.430;2022-09-09T14:18:54;5.70;;;1.95;;
44189;SDS011;29856;52.144;5.430;2022-09-09T14:21:20;5.90;;;1.70;;
44189;SDS011;29856;52.144;5.430;2022-09-09T14:23:45;8.57;;;2.47;;
44189;SDS011;29856;52.144;5.430;2022-09-09T14:26:11;5.78;;;2.75;;
44189;SDS011;29856;52.144;5.430;2022-09-09T14:28:36;5.80;;;2.38;;
44189;SDS011;29856;52.144;5.430;2022-09-09T14:31:02;6.22;;;2.10;;
44189;SDS011;29856;52.144;5.430;2022-09-09T14:33:28;5.72;;;2.10;;
44189;SDS011;29856;52.144;5.430;2022-09-09T14:35:58;7.32;;;2.28;;
44189;SDS011;29856;52.144;5.430;2022-09-09T14:38:25;9.48;;;3.85;;
44189;SDS011;29856;52.144;5.430;2022-09-09T14:40:53;8.52;;;2.20;;
44189;SDS011;29856;52.144;5.430;2022-09-09T14:43:19;5.38;;;2.05;;
44189;SDS011;29856;52.144;5.430;2022-09-09T14:45:44;7.47;;;2.20;;
44189;SDS011;29856;52.144;5.430;2022-09-09T14:48:10;8.35;;;2.80;;
44189;SDS011;29856;52.144;5.430;2022-09-09T14:50:35;8.60;;;2.50;;
44189;SDS011;29856;52.144;5.430;2022-09-09T14:53:00;10.27;;;3.35;;
44189;SDS011;29856;52.144;5.430;2022-09-09T14:55:26;8.77;;;2.75;;
44189;SDS011;29856;52.144;5.430;2022-09-09T14:57:51;7.97;;;2.40;;
44189;SDS011;29856;52.144;5.430;2022-09-09T15:00:17;7.50;;;2.60;;
44189;SDS011;29856;52.144;5.430;2022-09-09T15:02:42;6.47;;;2.20;;
44189;SDS011;29856;52.144;5.430;2022-09-09T15:05:08;12.05;;;3.05;;
44189;SDS011;29856;52.144;5.430;2022-09-09T15:07:33;4.53;;;2.30;;
44189;SDS011;29856;52.144;5.430;2022-09-09T15:09:59;6.32;;;2.70;;
44189;SDS011;29856;52.144;5.430;2022-09-09T15:12:24;6.93;;;2.42;;
44189;SDS011;29856;52.144;5.430;2022-09-09T15:14:51;7.90;;;2.47;;
44189;SDS011;29856;52.144;5.430;2022-09-09T15:17:16;5.20;;;2.10;;
44189;SDS011;29856;52.144;5.430;2022-09-09T15:19:42;6.85;;;2.25;;
44189;SDS011;29856;52.144;5.430;2022-09-09T15:22:07;9.45;;;2.22;;
44189;SDS011;29856;52.144;5.430;2022-09-09T15:24:34;4.10;;;1.85;;
44189;SDS011;29856;52.144;5.430;2022-09-09T15:27:00;5.90;;;2.15;;
44189;SDS011;29856;52.144;5.430;2022-09-09T15:29:26;6.30;;;1.50;;
44189;SDS011;29856;52.144;5.430;2022-09-09T15:31:53;2.70;;;1.10;;
44189;SDS011;29856;52.144;5.430;2022-09-09T15:34:19;6.97;;;1.60;;
44189;SDS011;29856;52.144;5.430;2022-09-09T15:36:45;6.05;;;2.25;;
44189;SDS011;29856;52.144;5.430;2022-09-09T15:39:11;4.25;;;1.20;;
44189;SDS011;29856;52.144;5.430;2022-09-09T15:41:38;6.63;;;1.67;;
44189;SDS011;29856;52.144;5.430;2022-09-09T15:44:04;3.70;;;1.25;;
44189;SDS011;29856;52.144;5.430;2022-09-09T15:46:37;2.05;;;1.05;;
44189;SDS011;29856;52.144;5.430;2022-09-09T15:49:14;7.63;;;1.67;;
44189;SDS011;29856;52.144;5.430;2022-09-09T15:51:42;5.18;;;1.50;;
44189;SDS011;29856;52.144;5.430;2022-09-09T15:54:10;4.18;;;1.30;;
44189;SDS011;29856;52.144;5.430;2022-09-09T15:56:41;4.72;;;1.50;;
44189;SDS011;29856;52.144;5.430;2022-09-09T15:59:06;5.00;;;1.30;;
44189;SDS011;29856;52.144;5.430;2022-09-09T16:01:32;3.10;;;1.40;;
44189;SDS011;29856;52.144;5.430;2022-09-09T16:03:58;2.90;;;1.20;;
44189;SDS011;29856;52.144;5.430;2022-09-09T16:06:24;3.70;;;1.45;;
44189;SDS011;29856;52.144;5.430;2022-09-09T16:08:52;5.00;;;1.80;;
44189;SDS011;29856;52.144;5.430;2022-09-09T16:11:19;3.85;;;1.50;;
44189;SDS011;29856;52.144;5.430;2022-09-09T16:13:50;4.45;;;1.48;;
44189;SDS011;29856;52.144;5.430;2022-09-09T16:16:18;3.65;;;1.77;;
44189;SDS011;29856;52.144;5.430;2022-09-09T16:18:46;5.32;;;1.75;;
44189;SDS011;29856;52.144;5.430;2022-09-09T16:21:18;3.10;;;1.52;;
44189;SDS011;29856;52.144;5.430;2022-09-09T16:23:48;5.03;;;1.70;;
44189;SDS011;29856;52.144;5.430;2022-09-09T16:26:15;5.35;;;1.73;;
44189;SDS011;29856;52.144;5.430;2022-09-09T16:28:41;5.05;;;3.42;;
44189;SDS011;29856;52.144;5.430;2022-09-09T16:31:07;3.85;;;1.80;;
44189;SDS011;29856;52.144;5.430;2022-09-09T16:33:35;3.72;;;1.63;;
44189;SDS011;29856;52.144;5.430;2022-09-09T16:36:05;3.70;;;1.60;;
44189;SDS011;29856;52.144;5.430;2022-09-09T16:38:34;3.97;;;2.10;;
44189;SDS011;29856;52.144;5.430;2022-09-09T16:40:59;3.55;;;1.65;;
44189;SDS011;29856;52.144;5.430;2022-09-09T16:43:25;3.90;;;2.03;;
44189;SDS011;29856;52.144;5.430;2022-09-09T16:45:51;3.88;;;1.50;;
44189;SDS011;29856;52.144;5.430;2022-09-09T16:48:16;3.95;;;1.67;;
44189;SDS011;29856;52.144;5.430;2022-09-09T16:50:42;3.95;;;1.30;;
44189;SDS011;29856;52.144;5.430;2022-09-09T16:53:07;5.28;;;2.03;;
44189;SDS011;29856;52.144;5.430;2022-09-09T16:55:32;7.57;;;2.05;;
44189;SDS011;29856;52.144;5.430;2022-09-09T16:58:01;5.38;;;1.83;;
44189;SDS011;29856;52.144;5.430;2022-09-09T17:00:27;4.63;;;1.83;;
44189;SDS011;29856;52.144;5.430;2022-09-09T17:02:52;5.93;;;1.77;;
44189;SDS011;29856;52.144;5.430;2022-09-09T17:05:18;5.70;;;2.05;;
44189;SDS011;29856;52.144;5.430;2022-09-09T17:07:43;4.53;;;2.05;;